Time;durP1;ratioP1;P1;durP2;ratioP2;P2;SDS_P1;SDS_P2;PMS_P1;PMS_P2;Temp;Humidity;BMP_temperature;BMP_pressure;BME280_temperature;BME280_humidity;BME280_pressure;Samples;Min_cycle;Max_cycle;Signal;HPM_P1;HPM_P2
2023/07/24 07:16:19;;;;;;;7.35;1.90;;;14.60;80.90;;;;;;5099406;28;20061;-68
2023/07/24 07:18:47;;;;;;;8.55;2.10;;;14.60;81.30;;;;;;5095691;28;20048;-69
2023/07/24 07:21:14;;;;;;;9.40;2.55;;;14.50;81.60;;;;;;5101556;28;20032;-69
2023/07/24 07:23:41;;;;;;;12.38;2.78;;;14.50;81.70;;;;;;5111491;27;20139;-69
2023/07/24 07:26:08;;;;;;;6.25;2.40;;;14.50;81.90;;;;;;5102051;27;20044;-68
2023/07/24 07:28:37;;;;;;;9.73;2.40;;;14.40;81.80;;;;;;5094761;28;20477;-68
2023/07/24 07:31:04;;;;;;;9.90;2.63;;;14.40;82.20;;;;;;5105698;28;20063;-69
2023/07/24 07:33:31;;;;;;;10.32;2.60;;;14.40;82.40;;;;;;5109075;28;20047;-69
2023/07/24 07:35:59;;;;;;;11.25;3.35;;;14.40;82.30;;;;;;5108026;27;20421;-69
2023/07/24 07:38:26;;;;;;;7.97;2.70;;;14.30;82.60;;;;;;5079992;28;20048;-70
2023/07/24 07:40:53;;;;;;;7.25;2.80;;;14.30;82.80;;;;;;5101673;28;20060;-71
2023/07/24 07:43:20;;;;;;;9.15;2.53;;;14.30;82.90;;;;;;5102542;28;20051;-69
2023/07/24 07:45:48;;;;;;;16.75;3.17;;;14.30;82.80;;;;;;5108773;28;20058;-69
2023/07/24 07:48:15;;;;;;;12.27;2.70;;;14.30;82.90;;;;;;5106706;28;20071;-70
2023/07/24 07:50:42;;;;;;;7.80;2.55;;;14.30;82.80;;;;;;5085894;28;20092;-72
2023/07/24 07:53:10;;;;;;;11.43;2.80;;;14.20;83.10;;;;;;5104592;28;20039;-71
2023/07/24 07:55:37;;;;;;;9.38;2.88;;;14.20;83.10;;;;;;5111107;27;20043;-71
2023/07/24 07:58:04;;;;;;;9.88;3.33;;;14.20;83.10;;;;;;5106052;28;20039;-71
2023/07/24 08:00:31;;;;;;;11.18;2.72;;;14.20;83.10;;;;;;5111021;27;20511;-70
2023/07/24 08:02:58;;;;;;;9.32;2.80;;;14.20;83.00;;;;;;5108198;28;20031;-69
2023/07/24 08:05:26;;;;;;;7.47;2.33;;;14.20;82.90;;;;;;5109921;28;20100;-69
2023/07/24 08:07:53;;;;;;;9.40;2.85;;;14.20;82.80;;;;;;5083050;28;20039;-72
2023/07/24 08:10:20;;;;;;;9.27;2.92;;;14.20;82.80;;;;;;5107048;28;20096;-72
2023/07/24 08:12:47;;;;;;;7.85;2.83;;;14.10;82.60;;;;;;5106977;28;20071;-71
2023/07/24 08:15:15;;;;;;;8.32;2.85;;;14.10;82.90;;;;;;5103192;28;20374;-71
2023/07/24 09:37:22;;;;;;;14.60;6.60;;;13.00;88.50;;;;;;5101178;28;20097;-67
2023/07/24 09:39:49;;;;;;;28.45;10.77;;;13.00;88.80;;;;;;5103444;28;20032;-68
2023/07/24 09:42:16;;;;;;;26.10;10.43;;;13.00;88.80;;;;;;5105318;28;20046;-68
2023/07/24 09:44:44;;;;;;;19.98;7.40;;;13.00;88.70;;;;;;5108360;28;20396;-68
2023/07/24 09:47:11;;;;;;;17.92;6.40;;;13.00;88.70;;;;;;5090786;28;20494;-67
2023/07/24 09:49:38;;;;;;;16.90;6.10;;;13.00;88.80;;;;;;5105502;28;20044;-67
2023/07/24 09:52:07;;;;;;;17.35;6.10;;;12.90;88.70;;;;;;5088760;28;20040;-67
2023/07/24 09:54:40;;;;;;;22.73;6.30;;;12.90;89.00;;;;;;5109733;28;20063;-67
2023/07/24 09:57:08;;;;;;;17.25;6.15;;;12.90;88.90;;;;;;5108025;28;20130;-67
2023/07/24 09:59:36;;;;;;;18.33;6.10;;;12.80;89.10;;;;;;5087695;28;20039;-67
2023/07/24 10:02:03;;;;;;;14.98;5.78;;;12.80;89.20;;;;;;5083397;28;20116;-67
2023/07/24 10:04:32;;;;;;;20.42;6.47;;;12.80;89.30;;;;;;5096241;28;20046;-67
2023/07/24 10:06:59;;;;;;;15.68;6.55;;;12.70;89.50;;;;;;5075419;28;20038;-67
2023/07/24 10:09:26;;;;;;;20.90;6.45;;;12.70;89.50;;;;;;5092770;28;20079;-67
2023/07/24 10:11:53;;;;;;;17.50;6.15;;;12.70;89.40;;;;;;5101972;28;20027;-68
2023/07/24 10:14:21;;;;;;;17.55;5.28;;;12.60;89.40;;;;;;5073470;28;20050;-67
2023/07/24 10:16:49;;;;;;;16.08;5.95;;;12.60;89.50;;;;;;5091688;28;20047;-67
2023/07/24 10:19:16;;;;;;;12.40;5.45;;;12.50;89.70;;;;;;5093676;28;20040;-67
2023/07/24 10:21:48;;;;;;;17.70;5.95;;;12.60;90.00;;;;;;5111139;28;20085;-67
2023/07/24 10:24:22;;;;;;;17.75;5.75;;;12.60;89.90;;;;;;5111680;28;20048;-68
2023/07/24 10:26:50;;;;;;;12.43;5.13;;;12.60;90.00;;;;;;5077522;28;20043;-69
2023/07/24 10:29:19;;;;;;;13.05;5.05;;;12.60;90.10;;;;;;5091323;28;20456;-70
2023/07/24 10:31:54;;;;;;;21.85;5.90;;;12.60;90.10;;;;;;5093441;28;20503;-70
2023/07/24 10:34:21;;;;;;;15.95;5.35;;;12.50;90.10;;;;;;5112087;28;20045;-69
2023/07/24 10:36:48;;;;;;;16.48;5.32;;;12.50;90.00;;;;;;5109663;28;21481;-70
2023/07/24 10:39:18;;;;;;;14.13;4.45;;;12.50;90.00;;;;;;5111978;28;20508;-70
2023/07/24 10:41:46;;;;;;;13.60;5.00;;;12.50;90.10;;;;;;5111609;28;20043;-70
2023/07/24 10:44:13;;;;;;;12.75;4.95;;;12.50;90.10;;;;;;5094014;28;20482;-69
2023/07/24 10:46:42;;;;;;;13.40;4.65;;;12.50;90.20;;;;;;5111421;28;20502;-69
2023/07/24 10:49:09;;;;;;;12.73;4.53;;;12.50;90.20;;;;;;5105184;28;20040;-71
2023/07/24 10:51:39;;;;;;;13.35;4.90;;;12.40;90.20;;;;;;5110326;28;20036;-69
2023/07/24 10:54:07;;;;;;;16.10;5.13;;;12.30;90.30;;;;;;5112817;28;20043;-70
2023/07/24 10:56:34;;;;;;;10.45;4.47;;;12.30;90.50;;;;;;5106834;28;20549;-70
2023/07/24 10:59:07;;;;;;;13.35;4.88;;;12.30;90.50;;;;;;5090451;28;20048;-72
2023/07/24 11:01:34;;;;;;;9.95;4.45;;;12.30;90.70;;;;;;5111596;28;20043;-71
2023/07/24 11:04:02;;;;;;;9.95;4.43;;;12.30;90.60;;;;;;5094384;28;20046;-72
2023/07/24 11:06:29;;;;;;;12.63;4.70;;;12.30;90.50;;;;;;5089812;28;20028;-73
2023/07/24 11:08:57;;;;;;;12.85;4.18;;;12.30;90.60;;;;;;5106981;28;20058;-71
2023/07/24 11:11:31;;;;;;;11.27;4.80;;;12.20;90.60;;;;;;5110943;28;20118;-73
2023/07/24 11:13:59;;;;;;;12.45;4.68;;;12.20;90.60;;;;;;5111048;28;20501;-72
2023/07/24 11:16:27;;;;;;;15.68;5.05;;;12.20;90.70;;;;;;5105721;28;20044;-70
2023/07/24 11:18:55;;;;;;;12.70;5.03;;;12.20;90.70;;;;;;5108698;28;20345;-70
2023/07/24 11:21:25;;;;;;;10.63;4.45;;;12.20;90.60;;;;;;5116455;27;20050;-70
2023/07/24 11:23:53;;;;;;;10.13;4.33;;;12.20;90.70;;;;;;5131200;27;20117;-71
2023/07/24 11:26:24;;;;;;;12.85;4.65;;;12.20;90.80;;;;;;5073997;28;20344;-71
2023/07/24 11:28:52;;;;;;;13.15;4.80;;;12.20;90.70;;;;;;5074302;28;20040;-72
2023/07/24 11:31:20;;;;;;;9.90;4.30;;;12.20;90.80;;;;;;5109145;28;20071;-73
2023/07/24 11:33:48;;;;;;;12.13;5.80;;;12.20;90.90;;;;;;5091185;28;20397;-71
2023/07/24 11:36:15;;;;;;;13.07;4.47;;;12.20;90.80;;;;;;5073834;28;20067;-71
2023/07/24 11:38:44;;;;;;;9.60;4.22;;;12.20;90.70;;;;;;5075265;28;20060;-71
2023/07/24 11:41:11;;;;;;;11.32;4.38;;;12.20;90.70;;;;;;5092622;28;20537;-71
2023/07/24 11:43:47;;;;;;;12.55;5.25;;;12.10;90.90;;;;;;5091688;28;20073;-71
2023/07/24 11:46:26;;;;;;;11.90;4.55;;;12.10;90.90;;;;;;5108255;28;20031;-72
2023/07/24 11:48:56;;;;;;;9.13;4.70;;;12.10;90.90;;;;;;5108508;28;20043;-71
2023/07/24 11:51:25;;;;;;;10.63;4.55;;;12.10;91.00;;;;;;5092109;28;20031;-71
2023/07/24 11:53:52;;;;;;;12.35;5.22;;;12.10;91.20;;;;;;5059461;28;20039;-71
2023/07/24 11:56:22;;;;;;;12.57;4.80;;;12.10;91.30;;;;;;5090460;28;20508;-71
2023/07/24 11:58:49;;;;;;;14.10;5.80;;;12.10;91.20;;;;;;5109956;28;20059;-71
2023/07/24 12:01:16;;;;;;;12.13;5.82;;;12.10;91.10;;;;;;5109178;28;20032;-71
2023/07/24 12:03:44;;;;;;;17.90;6.45;;;12.00;91.10;;;;;;5092211;28;20129;-71
2023/07/24 12:06:17;;;;;;;18.63;6.63;;;12.00;91.20;;;;;;5096083;28;20032;-71
2023/07/24 12:08:45;;;;;;;17.33;6.85;;;12.10;90.90;;;;;;5074599;28;20092;-71
2023/07/24 12:11:19;;;;;;;18.25;6.45;;;12.10;90.80;;;;;;5091033;28;20027;-71
2023/07/24 12:13:46;;;;;;;12.80;6.30;;;12.10;90.50;;;;;;5110026;28;20039;-71
2023/07/24 12:16:13;;;;;;;14.63;6.78;;;12.10;90.40;;;;;;5109048;28;20035;-71
2023/07/24 12:18:40;;;;;;;21.75;6.85;;;12.10;90.20;;;;;;5108871;28;20401;-72
2023/07/24 12:21:08;;;;;;;19.70;6.97;;;12.10;90.20;;;;;;5109286;28;20633;-71
2023/07/24 12:23:35;;;;;;;14.63;6.30;;;12.00;90.10;;;;;;5110267;28;20112;-71
2023/07/24 12:26:02;;;;;;;15.70;7.00;;;12.00;90.30;;;;;;5080092;28;20028;-71
2023/07/24 12:28:29;;;;;;;20.35;7.13;;;12.00;90.40;;;;;;5078320;28;20047;-70
2023/07/24 12:30:56;;;;;;;14.65;6.80;;;12.00;90.20;;;;;;5072626;28;20035;-70
2023/07/24 12:33:24;;;;;;;14.88;7.25;;;11.90;90.30;;;;;;5110125;28;20040;-70
2023/07/24 12:35:52;;;;;;;18.02;6.53;;;11.90;90.40;;;;;;5105833;28;20051;-71
2023/07/24 12:38:20;;;;;;;16.35;6.13;;;12.00;90.40;;;;;;5107045;28;20052;-70
2023/07/24 12:40:47;;;;;;;13.38;5.82;;;11.90;90.60;;;;;;5109335;27;20452;-70
2023/07/24 12:43:16;;;;;;;13.15;6.35;;;11.90;90.30;;;;;;5110866;28;20039;-69
2023/07/24 12:45:43;;;;;;;14.00;5.93;;;11.80;90.50;;;;;;5112137;28;20028;-68
2023/07/24 12:48:10;;;;;;;20.55;6.55;;;11.80;90.60;;;;;;5104718;28;20048;-69
2023/07/24 12:50:38;;;;;;;15.48;5.70;;;11.80;90.50;;;;;;5109365;27;20089;-69
2023/07/24 12:53:05;;;;;;;12.02;5.80;;;11.80;90.50;;;;;;5106658;27;20031;-68
2023/07/24 15:42:27;;;;;;;12.02;4.95;;;10.80;91.00;;;;;;5079572;28;20518;-71
2023/07/24 15:44:55;;;;;;;12.55;5.20;;;10.80;91.20;;;;;;5054390;28;20479;-70
2023/07/24 15:47:23;;;;;;;9.52;5.32;;;10.80;91.20;;;;;;5072720;28;20051;-70
2023/07/24 15:49:50;;;;;;;11.23;5.30;;;10.80;91.20;;;;;;5072713;28;20020;-71
2023/07/24 15:52:17;;;;;;;13.10;5.65;;;10.90;91.20;;;;;;5069103;28;20033;-71
2023/07/24 15:54:44;;;;;;;13.48;5.22;;;10.90;91.40;;;;;;5068636;28;20499;-71
2023/07/24 15:57:12;;;;;;;9.60;5.50;;;10.80;91.30;;;;;;5062567;28;20032;-71
2023/07/24 15:59:39;;;;;;;11.73;5.10;;;10.90;91.60;;;;;;5068438;28;20029;-72
2023/07/24 16:02:06;;;;;;;10.70;5.72;;;10.90;91.50;;;;;;5065984;28;20383;-69
2023/07/24 16:04:33;;;;;;;12.38;5.45;;;10.90;91.30;;;;;;5053396;28;20112;-69
2023/07/24 16:07:01;;;;;;;11.40;5.28;;;10.90;91.20;;;;;;5065881;28;20513;-69
2023/07/24 16:09:28;;;;;;;13.00;5.03;;;10.90;91.30;;;;;;5055310;28;20037;-68
2023/07/24 16:11:55;;;;;;;12.75;5.80;;;10.90;91.40;;;;;;5054771;28;20032;-69
2023/07/24 16:14:22;;;;;;;15.75;5.63;;;10.80;91.10;;;;;;5070846;28;20029;-69
2023/07/24 16:16:49;;;;;;;10.00;5.57;;;10.80;90.90;;;;;;5073290;28;20390;-69
2023/07/24 16:19:18;;;;;;;14.38;5.82;;;10.90;91.00;;;;;;5055262;28;20035;-69
2023/07/24 16:21:46;;;;;;;13.20;5.10;;;10.80;91.00;;;;;;5055212;28;20051;-69
2023/07/24 16:24:16;;;;;;;14.05;5.40;;;10.80;90.80;;;;;;5038208;28;20036;-69
2023/07/24 16:26:44;;;;;;;12.60;5.63;;;10.80;90.90;;;;;;5054543;28;20031;-68
2023/07/24 16:29:11;;;;;;;13.55;6.05;;;10.80;90.80;;;;;;5055042;28;20480;-68
2023/07/24 16:31:39;;;;;;;9.00;5.22;;;10.80;90.90;;;;;;5052665;28;20025;-69
2023/07/24 16:34:06;;;;;;;12.13;5.72;;;10.80;90.90;;;;;;5055192;28;20033;-68
2023/07/24 16:36:34;;;;;;;10.07;5.75;;;10.70;90.80;;;;;;5072394;28;20036;-69
2023/07/24 16:39:03;;;;;;;11.65;5.53;;;10.70;91.00;;;;;;5054919;28;20040;-69
2023/07/24 16:41:31;;;;;;;15.40;5.78;;;10.70;91.00;;;;;;5038305;28;20041;-69
2023/07/24 16:43:58;;;;;;;11.25;5.45;;;10.70;90.90;;;;;;5071067;28;20517;-68
2023/07/24 16:46:25;;;;;;;14.68;6.03;;;10.70;90.70;;;;;;5054216;28;20044;-69
2023/07/24 16:48:53;;;;;;;11.88;5.07;;;10.60;90.90;;;;;;5070461;28;20078;-69
2023/07/24 16:51:20;;;;;;;18.00;6.10;;;10.70;90.70;;;;;;5071241;28;20040;-69
2023/07/24 16:53:47;;;;;;;11.95;5.60;;;10.60;90.70;;;;;;5070508;28;20068;-69
2023/07/24 16:56:14;;;;;;;13.38;6.25;;;10.60;90.90;;;;;;5070659;28;20479;-69
2023/07/24 16:58:41;;;;;;;14.13;5.97;;;10.60;90.80;;;;;;5069800;28;20036;-69
2023/07/24 17:01:09;;;;;;;18.38;6.20;;;10.60;90.80;;;;;;5051297;28;20035;-69
2023/07/24 17:03:36;;;;;;;10.45;5.60;;;10.50;90.80;;;;;;5070019;28;20107;-69
2023/07/24 17:06:03;;;;;;;13.75;6.07;;;10.50;90.80;;;;;;5059819;28;20090;-68
2023/07/24 17:08:31;;;;;;;12.02;5.70;;;10.50;90.90;;;;;;5071581;28;20054;-69
2023/07/24 17:10:58;;;;;;;14.80;6.03;;;10.50;90.80;;;;;;5070860;28;20036;-69
2023/07/24 17:13:25;;;;;;;16.00;6.05;;;10.50;90.80;;;;;;5053411;28;20400;-69
2023/07/24 17:15:52;;;;;;;12.05;5.90;;;10.50;91.00;;;;;;5072074;28;20119;-69
2023/07/24 17:18:20;;;;;;;15.70;6.10;;;10.50;91.10;;;;;;5054013;28;20110;-69
2023/07/24 17:20:50;;;;;;;8.57;5.60;;;10.50;91.20;;;;;;5068932;28;20033;-69
2023/07/24 17:23:17;;;;;;;10.48;5.78;;;10.50;91.10;;;;;;5071384;28;20067;-69
2023/07/24 17:25:46;;;;;;;20.70;6.20;;;10.50;91.10;;;;;;5071545;28;20032;-69
2023/07/24 17:28:13;;;;;;;12.30;6.03;;;10.40;91.00;;;;;;5072054;28;20100;-69
2023/07/24 17:30:41;;;;;;;11.02;5.95;;;10.30;90.90;;;;;;5071763;28;20033;-69
2023/07/24 17:33:08;;;;;;;16.90;6.00;;;10.30;91.00;;;;;;5053162;28;20116;-69
2023/07/24 17:35:35;;;;;;;12.90;5.95;;;10.30;91.00;;;;;;5057217;28;20055;-69
2023/07/24 17:38:02;;;;;;;15.77;6.18;;;10.30;91.00;;;;;;5068371;28;20045;-69
2023/07/24 17:40:30;;;;;;;13.68;6.50;;;10.20;90.90;;;;;;5058273;28;20091;-69
2023/07/24 17:42:57;;;;;;;14.10;5.50;;;10.20;91.00;;;;;;5070799;28;20079;-69
2023/07/24 17:45:24;;;;;;;13.70;5.85;;;10.20;91.20;;;;;;5070198;28;20036;-69
2023/07/24 17:47:51;;;;;;;12.93;6.05;;;10.20;91.30;;;;;;5070346;28;20394;-69
2023/07/24 17:50:19;;;;;;;14.60;6.25;;;10.20;91.10;;;;;;5070789;28;20028;-69
2023/07/24 17:52:47;;;;;;;15.63;6.88;;;10.20;91.20;;;;;;5051109;28;20028;-69
2023/07/24 17:55:14;;;;;;;11.80;6.20;;;10.20;91.40;;;;;;5067703;28;20029;-69
2023/07/24 17:57:41;;;;;;;14.93;6.22;;;10.10;91.40;;;;;;5070407;28;20079;-69
2023/07/24 18:00:09;;;;;;;15.70;6.93;;;10.10;91.50;;;;;;5070235;28;20036;-69
2023/07/24 18:02:36;;;;;;;16.30;7.03;;;10.10;91.40;;;;;;5062929;28;20124;-69
2023/07/24 18:05:04;;;;;;;15.20;6.65;;;10.10;91.40;;;;;;5070047;28;20029;-69
2023/07/24 18:07:31;;;;;;;15.70;6.40;;;10.10;91.40;;;;;;5051681;28;20067;-70
2023/07/24 18:09:58;;;;;;;12.68;5.78;;;10.10;91.40;;;;;;5068649;28;20491;-69
2023/07/24 18:12:26;;;;;;;13.15;6.38;;;10.00;91.20;;;;;;5062415;28;20487;-69
2023/07/24 18:14:53;;;;;;;14.10;6.45;;;10.00;91.30;;;;;;5065497;28;20024;-69
2023/07/24 18:17:20;;;;;;;14.82;6.45;;;10.00;91.30;;;;;;5052508;28;20052;-69
2023/07/24 18:19:48;;;;;;;13.90;5.97;;;10.00;91.30;;;;;;5069420;28;20028;-69
2023/07/24 18:22:15;;;;;;;12.48;5.53;;;10.00;91.20;;;;;;5066554;28;20404;-69
2023/07/24 18:24:43;;;;;;;11.18;5.78;;;9.90;91.30;;;;;;5060444;28;20040;-69
2023/07/24 18:27:11;;;;;;;13.20;6.22;;;9.90;91.30;;;;;;5072266;28;20042;-69
2023/07/24 18:29:38;;;;;;;16.95;6.40;;;9.90;91.50;;;;;;5069785;28;20028;-69
2023/07/24 18:32:06;;;;;;;12.95;5.60;;;9.90;91.40;;;;;;5061115;28;20067;-69
2023/07/24 18:34:33;;;;;;;11.10;5.78;;;9.90;91.50;;;;;;5068118;28;20061;-69
2023/07/24 18:37:00;;;;;;;11.18;5.20;;;9.90;91.40;;;;;;5068412;28;20505;-69
2023/07/24 18:39:28;;;;;;;10.02;5.45;;;9.80;91.30;;;;;;5072791;28;20040;-69
2023/07/24 18:41:55;;;;;;;12.13;5.65;;;9.80;91.40;;;;;;5073743;28;20410;-69
2023/07/24 18:44:22;;;;;;;15.57;5.82;;;9.80;91.50;;;;;;5068492;28;20166;-69
2023/07/24 18:46:49;;;;;;;9.63;6.13;;;9.80;91.40;;;;;;5060330;28;20039;-69
2023/07/24 18:49:17;;;;;;;13.18;5.40;;;9.80;91.40;;;;;;5072530;28;20325;-69
2023/07/24 18:51:44;;;;;;;10.65;4.95;;;9.70;91.30;;;;;;5070078;28;20029;-68
2023/07/24 18:54:11;;;;;;;11.63;5.40;;;9.70;91.50;;;;;;5077004;28;20033;-69
2023/07/24 18:56:38;;;;;;;11.00;5.25;;;9.70;91.50;;;;;;5055400;28;20036;-69
2023/07/24 18:59:06;;;;;;;11.43;5.60;;;9.70;91.60;;;;;;5054989;28;20131;-68
2023/07/24 19:01:33;;;;;;;13.38;5.50;;;9.70;91.60;;;;;;5071482;28;20399;-69
2023/07/24 19:04:00;;;;;;;13.52;5.50;;;9.70;91.60;;;;;;5073598;28;20039;-68
2023/07/24 19:06:27;;;;;;;10.82;4.88;;;9.70;91.50;;;;;;5059825;28;20035;-69
2023/07/24 19:08:54;;;;;;;15.15;5.10;;;9.70;91.40;;;;;;5066808;28;20032;-69
2023/07/24 19:11:22;;;;;;;10.38;5.28;;;9.70;91.40;;;;;;5076165;28;20036;-70
2023/07/24 19:13:49;;;;;;;14.82;6.57;;;9.60;91.50;;;;;;5072716;28;20067;-69
2023/07/24 19:16:16;;;;;;;9.57;5.13;;;9.60;91.50;;;;;;5061044;28;20036;-69
2023/07/24 19:18:44;;;;;;;10.77;5.30;;;9.60;91.50;;;;;;5072833;28;20060;-68
2023/07/24 19:21:11;;;;;;;12.73;5.20;;;9.60;91.40;;;;;;5067473;28;20478;-68
2023/07/24 19:23:38;;;;;;;10.82;5.40;;;9.60;91.50;;;;;;5067636;28;20048;-68
2023/07/24 19:26:05;;;;;;;11.38;5.65;;;9.50;91.50;;;;;;5078948;28;20108;-69
2023/07/24 19:28:32;;;;;;;12.52;5.80;;;9.50;91.50;;;;;;5073817;28;20040;-68
2023/07/24 19:31:01;;;;;;;10.93;5.38;;;9.50;91.40;;;;;;5072927;28;20107;-68
2023/07/24 19:33:30;;;;;;;10.43;5.70;;;9.50;91.50;;;;;;5069119;28;20037;-68
2023/07/24 19:36:00;;;;;;;9.60;5.57;;;9.50;91.40;;;;;;5072396;28;20078;-70
2023/07/24 19:38:27;;;;;;;;;;;9.50;91.40;;;;;;5041426;28;20041;-71
2023/07/24 19:40:58;;;;;;;11.10;5.03;;;9.50;91.50;;;;;;5067466;28;19923;-71
2023/07/24 19:43:26;;;;;;;13.95;5.60;;;9.50;91.50;;;;;;5113058;28;20039;-71
2023/07/24 19:45:53;;;;;;;11.52;5.22;;;9.50;91.40;;;;;;5081006;28;20041;-71
2023/07/24 19:48:21;;;;;;;13.07;5.95;;;9.50;91.40;;;;;;5055776;28;20032;-71
2023/07/24 19:50:49;;;;;;;15.25;5.90;;;9.50;91.40;;;;;;5078874;28;20363;-71
2023/07/24 19:53:18;;;;;;;12.35;5.28;;;9.50;91.20;;;;;;5091190;28;20039;-71
2023/07/24 19:55:49;;;;;;;10.90;5.80;;;9.50;91.30;;;;;;5091009;28;20032;-71
2023/07/24 21:47:46;;;;;;;10.77;4.85;;;9.40;89.40;;;;;;5090277;28;20525;-70
2023/07/24 21:50:13;;;;;;;11.27;5.38;;;9.40;89.30;;;;;;5090749;28;20042;-70
2023/07/24 21:52:45;;;;;;;9.55;4.55;;;9.50;89.00;;;;;;5091935;28;20032;-70
2023/07/24 21:55:12;;;;;;;13.32;5.60;;;9.50;89.00;;;;;;5089772;28;20044;-70
2023/07/24 21:57:39;;;;;;;10.85;4.97;;;9.60;89.10;;;;;;5090727;28;20048;-70
2023/07/24 22:00:08;;;;;;;10.43;5.15;;;9.60;88.90;;;;;;5095355;28;20538;-68
2023/07/24 22:02:35;;;;;;;11.18;5.18;;;9.60;88.90;;;;;;5095704;28;20067;-68
2023/07/24 22:05:02;;;;;;;9.65;5.07;;;9.70;88.70;;;;;;5094627;28;20028;-68
2023/07/24 22:07:31;;;;;;;6.55;4.05;;;9.70;88.40;;;;;;5095904;28;20040;-70
2023/07/24 22:09:58;;;;;;;12.95;4.95;;;9.70;88.60;;;;;;5077669;28;20035;-70
2023/07/24 22:12:25;;;;;;;13.30;5.40;;;9.70;88.50;;;;;;5077322;28;20035;-69
2023/07/24 22:14:53;;;;;;;10.85;4.90;;;9.70;88.00;;;;;;5094862;28;20056;-69
2023/07/24 22:17:20;;;;;;;12.73;4.85;;;9.70;88.00;;;;;;5095484;28;20192;-70
2023/07/24 22:19:47;;;;;;;10.32;4.93;;;9.70;87.50;;;;;;5077877;28;20043;-70
2023/07/24 22:22:15;;;;;;;9.57;4.85;;;9.70;87.10;;;;;;5077762;28;20031;-70
2023/07/24 22:24:42;;;;;;;9.85;4.55;;;9.80;87.20;;;;;;5094583;28;20040;-70
2023/07/24 22:27:09;;;;;;;12.23;4.75;;;9.80;87.10;;;;;;5095145;28;20039;-69
2023/07/24 22:29:36;;;;;;;9.27;4.85;;;9.80;86.20;;;;;;5095633;28;20398;-70
2023/07/24 22:32:04;;;;;;;10.50;4.63;;;9.90;86.40;;;;;;5095143;28;20028;-69
2023/07/24 22:34:31;;;;;;;9.25;4.40;;;9.90;86.00;;;;;;5095166;28;20032;-69
2023/07/24 22:36:58;;;;;;;7.22;4.65;;;9.90;85.90;;;;;;5077520;28;20517;-69
2023/07/24 22:39:26;;;;;;;10.48;5.03;;;10.00;86.20;;;;;;5095960;28;20044;-69
2023/07/24 22:41:53;;;;;;;9.27;5.05;;;10.00;86.30;;;;;;5095200;28;20042;-69
2023/07/24 22:44:20;;;;;;;7.63;4.60;;;10.10;86.00;;;;;;5095783;28;20036;-69
